Rochester, MA

6:41 PM EDT on August 28, 2015 (GMT -0400)
APRSWXNET | | Change Station
CLOSE
Current Station
Personal Weather Station
Location: West Wareham, MA
Elevation: 88 ft
Nearby Weather Stations

Elev 88 ft 41.80 °N, 70.78 °W | Updated 29 minutes ago

Partly Cloudy
Partly Cloudy
75 °F
Feels Like 77 °F
N
1
Wind Variable Wind from SE
Gusts 1.0 mph

Today
High -- | Low -- °F
--% Chance of Precip.
Yesterday
High -- | Low -- °F
Precip. -- in
6:04 AM 7:23 PM
Waxing Gibbous, 99% visible
Pressure 30.10 in
Visibility 10.0 miles
Clouds Scattered Clouds 6000 ft
Heat Index 77 °F
Dew Point 63 °F
Humidity 67%
Rainfall in
Snow Depth Not available.
UV 1 out of 12
Pollen 9.70 out of 12
Air Quality Not available.
Flu Activity Not available.
METAR KEWB 282153Z 22009KT 10SM SCT060 24/14 A3010 RMK AO2 SLP192 T02390139
Pressure 30.10 in
Visibility 10.0 miles
Clouds Scattered Clouds 6000 ft
Heat Index 77 °F
Dew Point 63 °F
Humidity 67%
Rainfall in
Snow Depth Not available.
UV 1 out of 12
Pollen 9.70 out of 12
Air Quality Not available.
Flu Activity Not available.
METAR KEWB 282153Z 22009KT 10SM SCT060 24/14 A3010 RMK AO2 SLP192 T02390139

10-Day Weather Forecast

×

Almanac

Astronomy

Aug. 28, 2015 Rise Set
Actual Time
Civil Twilight
Nautical Twilight
Astronomical Twilight
Moon
Length of Visible Light
Length of Day
Tomorrow will be .
, % of the Moon is Illuminated

Today's Extremes

State Highs State Lows

Community

WunderPhotos

Upload Photos

1,850,516 photos uploaded!

WunderBlogs® & News

Nearby

Air Quality

  Air Quality AQ Index Pollutant
Not available.

Snow Depth

Station Depth Elevation

Earthquake Activity

City Distance Mag. Time & Date
Minimum magnitude displayed is 2.5.

Coastal Water Temperatures

Place Temperature

Stations

Nearby Weather Stations

Station Location Temp. Windchill Dew Point Humidity Wind Precip. Elev Updated Type